Time;durP1;ratioP1;P1;durP2;ratioP2;P2;SDS_P1;SDS_P2;PMS_P1;PMS_P2;Temp;Humidity;BMP_temperature;BMP_pressure;BME280_temperature;BME280_humidity;BME280_pressure;Samples;Min_cycle;Max_cycle;Signal;HPM_P1;HPM_P2
2022/12/25 00:02:00;;;;;;;6.77;3.33;;;12.90;99.90;;;;;;5020338;28;20639;-65
2022/12/25 00:04:26;;;;;;;8.40;3.30;;;13.00;99.90;;;;;;5016669;28;20567;-65
2022/12/25 00:06:51;;;;;;;4.80;3.40;;;12.90;99.90;;;;;;5018538;28;20209;-65
2022/12/25 00:09:17;;;;;;;5.23;2.90;;;12.90;99.90;;;;;;5016687;28;20188;-65
2022/12/25 00:11:42;;;;;;;6.50;3.20;;;12.90;99.90;;;;;;5020795;28;20188;-65
2022/12/25 00:14:08;;;;;;;8.47;3.67;;;13.00;99.90;;;;;;5016249;28;20235;-65
2022/12/25 00:16:34;;;;;;;7.73;3.30;;;12.90;99.90;;;;;;5018359;28;20236;-65
2022/12/25 00:19:00;;;;;;;4.50;3.00;;;13.00;99.90;;;;;;5014010;28;20201;-65
2022/12/25 00:21:26;;;;;;;10.33;3.30;;;12.90;99.90;;;;;;5016163;28;20263;-65
2022/12/25 00:23:54;;;;;;;10.20;3.70;;;12.90;99.90;;;;;;5021565;28;20196;-65
2022/12/25 00:26:20;;;;;;;5.90;3.10;;;12.90;99.90;;;;;;5016911;28;20482;-65
2022/12/25 00:28:46;;;;;;;8.47;3.47;;;12.90;99.90;;;;;;5019939;28;20442;-66
2022/12/25 00:31:14;;;;;;;5.37;2.87;;;12.90;99.90;;;;;;5017304;28;20439;-65
2022/12/25 00:33:42;;;;;;;5.93;2.73;;;12.90;99.90;;;;;;5017600;28;20298;-65
2022/12/25 00:36:09;;;;;;;4.20;3.33;;;12.90;99.90;;;;;;5019225;28;20462;-65
2022/12/25 00:38:37;;;;;;;4.00;2.67;;;12.90;99.90;;;;;;5015495;28;20471;-67
2022/12/25 00:41:07;;;;;;;7.87;3.27;;;12.90;99.90;;;;;;5014596;28;20447;-65
2022/12/25 00:43:32;;;;;;;7.33;3.27;;;12.90;99.90;;;;;;5019450;28;20442;-65
2022/12/25 00:46:04;;;;;;;6.90;3.50;;;12.90;99.90;;;;;;5015360;28;20558;-65
2022/12/25 00:48:30;;;;;;;9.50;4.17;;;12.90;99.90;;;;;;5013301;28;20202;-65
2022/12/25 00:50:57;;;;;;;7.10;3.43;;;12.90;99.90;;;;;;5015304;28;20455;-65
2022/12/25 00:53:24;;;;;;;7.57;3.67;;;12.90;99.90;;;;;;5021285;28;20828;-65
2022/12/25 00:55:55;;;;;;;6.43;3.90;;;12.90;99.90;;;;;;5016931;28;20817;-65
2022/12/25 00:58:23;;;;;;;9.70;3.57;;;12.90;99.90;;;;;;5013517;28;20981;-65
2022/12/25 01:00:48;;;;;;;12.17;3.53;;;12.90;99.90;;;;;;5018377;28;20871;-65
2022/12/25 01:03:15;;;;;;;10.37;4.10;;;12.90;99.90;;;;;;5017166;28;20439;-65
2022/12/25 01:05:41;;;;;;;6.50;4.07;;;12.90;99.90;;;;;;5022003;28;20207;-65
2022/12/25 01:08:06;;;;;;;5.03;3.40;;;12.90;99.90;;;;;;5013416;28;20447;-65
2022/12/25 01:10:32;;;;;;;7.27;3.30;;;13.00;99.90;;;;;;5017100;28;20219;-65
2022/12/25 01:12:57;;;;;;;9.33;4.10;;;12.90;99.90;;;;;;5019431;28;20634;-66
2022/12/25 01:15:23;;;;;;;8.50;4.07;;;12.90;99.90;;;;;;5015047;28;20176;-65
2022/12/25 01:17:49;;;;;;;8.50;4.17;;;12.90;99.90;;;;;;5014744;28;20197;-65
2022/12/25 01:20:16;;;;;;;8.10;3.57;;;13.00;99.90;;;;;;5015940;28;20266;-65
2022/12/25 01:22:43;;;;;;;4.20;3.40;;;13.00;99.90;;;;;;5020047;28;20180;-65
2022/12/25 01:25:09;;;;;;;9.33;4.47;;;13.00;99.90;;;;;;5019095;28;20461;-65
2022/12/25 01:27:35;;;;;;;6.83;3.90;;;13.00;99.90;;;;;;5030843;28;20816;-65
2022/12/25 01:30:00;;;;;;;9.13;4.23;;;13.00;99.90;;;;;;5021239;28;20462;-66
2022/12/25 01:32:26;;;;;;;8.17;3.73;;;13.00;99.90;;;;;;5022739;28;20195;-65
2022/12/25 01:34:52;;;;;;;6.57;4.60;;;13.00;99.90;;;;;;5018650;28;20216;-65
2022/12/25 01:37:17;;;;;;;9.73;4.37;;;12.90;99.90;;;;;;5025257;28;20209;-65
2022/12/25 01:39:43;;;;;;;6.50;4.10;;;12.90;99.90;;;;;;5019793;28;20291;-65
2022/12/25 01:42:19;;;;;;;5.97;3.97;;;12.90;99.90;;;;;;5018632;28;20867;-65
2022/12/25 01:44:45;;;;;;;8.80;4.10;;;12.90;99.90;;;;;;5027449;28;20560;-65
2022/12/25 01:47:11;;;;;;;7.30;3.77;;;12.90;99.90;;;;;;5018789;28;20451;-65
2022/12/25 01:49:39;;;;;;;6.97;4.07;;;12.90;99.90;;;;;;5022766;28;20193;-65
2022/12/25 01:52:14;;;;;;;6.40;3.93;;;13.00;99.90;;;;;;5017662;28;20463;-65
2022/12/25 01:54:42;;;;;;;8.40;3.40;;;13.00;99.90;;;;;;5024967;28;20465;-65
2022/12/25 01:57:12;;;;;;;13.00;4.60;;;13.00;99.90;;;;;;5019743;28;20447;-65
2022/12/25 01:59:38;;;;;;;7.70;4.30;;;13.00;99.90;;;;;;5017139;28;20843;-65
2022/12/25 02:02:04;;;;;;;7.60;4.63;;;13.00;99.90;;;;;;5022268;28;20758;-65
2022/12/25 02:04:39;;;;;;;7.43;4.17;;;12.90;99.90;;;;;;5024230;28;20454;-65
2022/12/25 02:07:14;;;;;;;10.50;4.77;;;12.90;99.90;;;;;;5014339;28;20217;-65
2022/12/25 02:09:40;;;;;;;10.60;4.53;;;12.90;99.90;;;;;;5020332;28;21319;-65
2022/12/25 02:12:08;;;;;;;7.57;5.53;;;12.90;99.90;;;;;;5026279;28;20428;-65
2022/12/25 02:14:36;;;;;;;9.97;4.30;;;13.00;99.90;;;;;;5021677;28;20197;-65
2022/12/25 02:17:23;;;;;;;7.03;4.67;;;12.90;99.90;;;;;;5021201;28;20838;-65
2022/12/25 02:20:04;;;;;;;17.63;6.07;;;12.90;99.90;;;;;;5020896;28;20881;-65
2022/12/25 02:22:48;;;;;;;8.87;5.87;;;12.90;99.90;;;;;;5018109;28;20443;-65
2022/12/25 02:25:35;;;;;;;13.80;6.00;;;12.90;99.90;;;;;;5020323;28;20450;-65
2022/12/25 02:28:22;;;;;;;9.27;7.70;;;12.90;99.90;;;;;;5022582;28;20466;-67
2022/12/25 02:30:59;;;;;;;9.80;5.20;;;12.90;99.90;;;;;;5018079;28;20509;-65
2022/12/25 02:36:31;;;;;;;11.47;6.33;;;12.90;99.90;;;;;;5018415;28;20810;-65
2022/12/25 02:41:47;;;;;;;10.70;5.50;;;12.90;99.90;;;;;;5020729;28;20449;-65
2022/12/25 03:06:41;;;;;;;12.60;5.87;;;12.90;99.90;;;;;;5013800;28;20580;-65
2022/12/25 03:07:15;;;;;;;7.47;5.60;;;12.70;99.90;;;;;;5020091;28;20598;-65
2022/12/25 03:12:49;;;;;;;8.93;5.57;;;12.70;99.90;;;;;;5019903;28;20454;-65
2022/12/25 03:18:05;;;;;;;7.67;5.23;;;12.60;99.90;;;;;;5012766;28;20465;-65
2022/12/25 03:28:55;;;;;;;11.33;5.50;;;12.60;99.90;;;;;;5020808;28;20497;-65
2022/12/25 03:31:27;;;;;;;10.47;5.10;;;12.60;99.90;;;;;;5016557;28;20439;-66
2022/12/25 04:38:37;;;;;;;11.90;6.23;;;12.70;99.90;;;;;;5012717;28;20442;-65
2022/12/25 04:41:03;;;;;;;7.50;6.03;;;12.70;99.90;;;;;;5018042;28;20924;-65
2022/12/25 04:43:29;;;;;;;7.73;5.37;;;12.70;99.90;;;;;;5023163;28;20415;-65
2022/12/25 04:45:56;;;;;;;10.63;5.30;;;12.70;99.90;;;;;;5021327;28;20871;-65
2022/12/25 04:48:22;;;;;;;8.20;4.90;;;12.70;99.90;;;;;;5019918;28;20447;-65
2022/12/25 04:50:48;;;;;;;11.83;4.83;;;12.70;99.90;;;;;;5020332;28;20431;-65
2022/12/25 04:53:15;;;;;;;6.57;4.30;;;12.60;99.90;;;;;;5016359;28;20802;-65
2022/12/25 04:55:42;;;;;;;6.80;4.40;;;12.60;99.90;;;;;;5016086;28;20204;-65
2022/12/25 04:58:07;;;;;;;8.50;4.83;;;12.60;99.90;;;;;;5017533;28;20485;-65
2022/12/25 05:00:33;;;;;;;5.60;4.10;;;12.60;99.90;;;;;;5010090;28;20849;-65
2022/12/25 05:02:58;;;;;;;9.70;3.97;;;12.50;99.90;;;;;;5015309;28;20196;-65
2022/12/25 05:05:24;;;;;;;7.30;4.70;;;12.50;99.90;;;;;;5016576;28;20181;-65
2022/12/25 05:07:50;;;;;;;6.60;4.30;;;12.50;99.90;;;;;;5016014;28;20188;-65
2022/12/25 05:10:16;;;;;;;8.90;4.30;;;12.50;99.90;;;;;;5013905;28;20184;-66
2022/12/25 05:12:41;;;;;;;9.67;4.40;;;12.40;99.90;;;;;;5017065;28;20196;-65
2022/12/25 05:15:07;;;;;;;6.43;3.73;;;12.40;99.90;;;;;;5016906;28;20261;-65
2022/12/25 05:17:33;;;;;;;7.00;4.60;;;12.40;99.90;;;;;;5012230;28;20791;-65
2022/12/25 05:19:58;;;;;;;9.60;3.80;;;12.40;99.90;;;;;;5016002;28;20685;-65
2022/12/25 05:22:24;;;;;;;5.00;3.73;;;12.30;99.90;;;;;;5015961;28;20219;-65
2022/12/25 05:24:49;;;;;;;8.53;4.03;;;12.30;99.90;;;;;;5017569;28;20890;-67
2022/12/25 05:27:15;;;;;;;7.77;4.37;;;12.30;99.90;;;;;;5016462;28;20692;-65
2022/12/25 05:29:41;;;;;;;8.63;5.13;;;12.40;99.90;;;;;;5014758;28;20538;-66
2022/12/25 05:32:07;;;;;;;8.40;4.30;;;12.30;99.90;;;;;;5013602;28;20207;-65
2022/12/25 05:34:33;;;;;;;6.10;3.50;;;12.30;99.90;;;;;;5012642;28;20240;-65
2022/12/25 05:36:58;;;;;;;11.20;3.80;;;12.30;99.90;;;;;;5014190;28;20510;-65
2022/12/25 05:39:24;;;;;;;8.60;4.23;;;12.30;99.90;;;;;;5015279;28;20191;-65
2022/12/25 05:41:50;;;;;;;7.30;3.90;;;12.30;99.90;;;;;;5016312;28;20176;-65
2022/12/25 05:44:15;;;;;;;8.37;4.00;;;12.30;99.90;;;;;;5017072;28;20199;-65
2022/12/25 05:46:41;;;;;;;9.97;4.43;;;12.20;99.90;;;;;;5009586;28;20912;-65
2022/12/25 05:49:07;;;;;;;8.90;4.23;;;12.20;99.90;;;;;;5014411;28;20190;-65
2022/12/25 05:51:32;;;;;;;7.83;3.60;;;12.20;99.90;;;;;;5018535;28;20286;-65
2022/12/25 05:53:58;;;;;;;4.87;3.80;;;12.20;99.90;;;;;;5013989;28;20282;-65
2022/12/25 05:56:23;;;;;;;5.03;3.97;;;12.20;99.90;;;;;;5016615;28;20282;-65
2022/12/25 05:58:49;;;;;;;7.10;3.80;;;12.20;99.90;;;;;;5018381;28;20194;-64
2022/12/25 06:01:24;;;;;;;5.70;3.50;;;12.20;99.90;;;;;;5015618;28;20192;-65
2022/12/25 06:03:50;;;;;;;6.00;3.83;;;12.20;99.90;;;;;;5012268;28;20184;-64
2022/12/25 06:06:16;;;;;;;5.83;3.30;;;12.20;99.90;;;;;;5010761;28;20455;-65
2022/12/25 06:08:42;;;;;;;8.80;3.90;;;12.20;99.90;;;;;;5017829;28;20442;-65
2022/12/25 06:11:09;;;;;;;6.10;4.00;;;12.20;99.90;;;;;;5017367;28;20188;-65
2022/12/25 06:13:35;;;;;;;6.53;3.00;;;12.30;99.90;;;;;;5013584;28;20550;-65
2022/12/25 06:16:06;;;;;;;5.13;3.20;;;12.30;99.90;;;;;;5024289;28;20821;-65
2022/12/25 06:18:35;;;;;;;7.07;3.47;;;12.30;99.90;;;;;;5014507;28;20875;-65
2022/12/25 06:21:00;;;;;;;8.50;3.90;;;12.30;99.90;;;;;;5018060;28;20434;-65
2022/12/25 06:23:26;;;;;;;6.47;3.83;;;12.30;99.90;;;;;;5019003;28;20448;-65
2022/12/25 06:25:51;;;;;;;3.77;3.23;;;12.30;99.90;;;;;;5018934;28;20213;-65
2022/12/25 06:28:17;;;;;;;6.10;3.53;;;12.30;99.90;;;;;;5020028;28;21007;-65
2022/12/25 06:30:42;;;;;;;7.23;2.97;;;12.30;99.90;;;;;;5015903;28;20191;-65
2022/12/25 06:33:08;;;;;;;7.63;3.50;;;12.30;99.90;;;;;;5017607;28;20188;-65
2022/12/25 06:35:36;;;;;;;4.93;3.40;;;12.30;99.90;;;;;;5022799;28;20196;-65
2022/12/25 06:38:02;;;;;;;5.03;3.13;;;12.30;99.90;;;;;;5019687;28;20236;-65
2022/12/25 06:40:28;;;;;;;8.10;3.97;;;12.30;99.90;;;;;;5023700;28;20415;-65
2022/12/25 06:42:53;;;;;;;5.93;3.67;;;12.30;99.90;;;;;;5022787;28;20289;-65
2022/12/25 06:45:19;;;;;;;3.90;3.27;;;12.30;99.90;;;;;;5021357;28;20185;-65
2022/12/25 06:47:44;;;;;;;4.53;3.00;;;12.30;99.90;;;;;;5017815;28;21001;-65
2022/12/25 06:50:10;;;;;;;6.60;2.93;;;12.30;99.90;;;;;;5021901;28;20581;-65
2022/12/25 06:52:35;;;;;;;5.47;3.60;;;12.40;99.90;;;;;;5021912;28;20204;-65
2022/12/25 06:55:01;;;;;;;5.37;3.20;;;12.30;99.90;;;;;;5017505;28;20667;-65
2022/12/25 06:57:27;;;;;;;5.30;3.23;;;12.30;99.90;;;;;;5018404;28;20211;-65
2022/12/25 06:59:52;;;;;;;4.10;3.20;;;12.40;99.90;;;;;;5021233;28;20200;-65
2022/12/25 07:02:20;;;;;;;4.37;3.00;;;12.30;99.90;;;;;;5021195;28;20191;-65
2022/12/25 07:04:46;;;;;;;7.40;4.57;;;12.30;99.90;;;;;;5016472;28;20280;-64
2022/12/25 07:07:12;;;;;;;5.20;3.53;;;12.40;99.90;;;;;;5016927;28;20459;-64
2022/12/25 07:09:38;;;;;;;4.10;3.70;;;12.30;99.90;;;;;;5014880;28;20450;-64
2022/12/25 07:12:07;;;;;;;4.67;3.50;;;12.30;99.90;;;;;;5012595;28;20541;-64
2022/12/25 07:14:32;;;;;;;5.37;3.17;;;12.30;99.90;;;;;;5020724;28;20471;-64
2022/12/25 07:16:58;;;;;;;5.17;3.47;;;12.40;99.90;;;;;;5013281;28;21032;-64
2022/12/25 07:19:23;;;;;;;5.80;3.63;;;12.30;99.90;;;;;;5015182;28;20223;-64
2022/12/25 07:21:49;;;;;;;4.20;3.57;;;12.30;99.90;;;;;;5018002;28;20642;-64
2022/12/25 07:24:19;;;;;;;7.37;3.90;;;12.40;99.90;;;;;;5016358;28;20197;-65
2022/12/25 07:26:44;;;;;;;5.83;3.13;;;12.40;99.90;;;;;;5014382;28;20631;-65
2022/12/25 07:29:10;;;;;;;4.90;3.13;;;12.30;99.90;;;;;;5016898;28;20536;-65
2022/12/25 07:31:36;;;;;;;4.90;3.50;;;12.30;99.90;;;;;;5012444;28;20231;-65
2022/12/25 07:34:02;;;;;;;6.00;3.77;;;12.30;99.90;;;;;;5017904;28;20204;-65
2022/12/25 07:36:28;;;;;;;4.90;2.70;;;12.30;99.90;;;;;;5014776;28;20469;-65
2022/12/25 07:38:54;;;;;;;6.10;3.77;;;12.30;99.90;;;;;;5016544;28;20184;-65
2022/12/25 07:41:19;;;;;;;5.00;3.60;;;12.30;99.90;;;;;;5014608;28;20959;-65
2022/12/25 07:43:48;;;;;;;3.80;3.10;;;12.30;99.90;;;;;;5015304;28;20438;-64
2022/12/25 07:46:14;;;;;;;7.20;3.30;;;12.30;99.90;;;;;;5016428;28;20219;-65
2022/12/25 07:48:40;;;;;;;7.40;3.80;;;12.30;99.90;;;;;;5019329;28;20435;-64
2022/12/25 07:51:09;;;;;;;4.63;3.50;;;12.30;99.90;;;;;;5012544;28;20196;-64
2022/12/25 07:53:35;;;;;;;3.70;3.10;;;12.30;99.90;;;;;;5013994;28;20208;-64
2022/12/25 07:56:04;;;;;;;5.37;3.10;;;12.30;99.90;;;;;;5014023;28;21502;-65
2022/12/25 07:58:29;;;;;;;5.57;2.90;;;12.30;99.90;;;;;;5015160;28;20435;-64
2022/12/25 08:01:08;;;;;;;6.37;5.00;;;12.30;99.90;;;;;;5015503;28;20440;-65
2022/12/25 08:03:34;;;;;;;5.80;4.80;;;12.30;99.90;;;;;;5013947;28;20442;-64
2022/12/25 08:06:01;;;;;;;4.90;3.63;;;12.40;99.90;;;;;;5016590;28;20592;-65
2022/12/25 08:08:27;;;;;;;6.07;3.87;;;12.40;99.90;;;;;;5012408;28;21031;-65
2022/12/25 08:10:53;;;;;;;5.80;3.23;;;12.50;99.90;;;;;;5017736;28;20445;-64
2022/12/25 08:13:18;;;;;;;4.17;3.63;;;12.50;99.90;;;;;;5019459;28;20457;-64
2022/12/25 08:15:44;;;;;;;4.70;3.30;;;12.50;99.90;;;;;;5020426;28;20204;-65
2022/12/25 08:18:09;;;;;;;6.67;3.30;;;12.50;99.90;;;;;;5015596;28;21151;-65
2022/12/25 08:20:35;;;;;;;5.23;3.60;;;12.50;99.90;;;;;;5019607;28;20184;-64
2022/12/25 08:23:01;;;;;;;4.53;2.87;;;12.60;99.90;;;;;;5016763;28;20219;-65
2022/12/25 08:25:27;;;;;;;5.67;3.50;;;12.60;99.90;;;;;;5015765;28;20474;-65
2022/12/25 08:27:52;;;;;;;5.10;3.67;;;12.60;99.90;;;;;;5015958;28;20271;-65
2022/12/25 08:30:18;;;;;;;5.30;3.10;;;12.70;99.90;;;;;;5014852;28;20203;-64
2022/12/25 08:32:43;;;;;;;6.47;3.33;;;12.70;99.90;;;;;;5017162;28;20223;-64
2022/12/25 08:35:09;;;;;;;5.13;3.10;;;12.70;99.90;;;;;;5017222;28;20231;-64
2022/12/25 08:37:35;;;;;;;6.53;3.93;;;12.70;99.90;;;;;;5015725;28;20676;-64
2022/12/25 08:40:00;;;;;;;5.20;3.53;;;12.70;99.90;;;;;;5012473;28;20235;-64
2022/12/25 08:42:26;;;;;;;3.97;3.43;;;12.70;99.90;;;;;;5020049;28;20565;-65
2022/12/25 08:44:52;;;;;;;5.67;3.50;;;12.70;99.90;;;;;;5017873;28;20937;-65
2022/12/25 08:47:17;;;;;;;5.70;4.27;;;12.70;99.90;;;;;;5016779;28;20262;-65
2022/12/25 08:49:43;;;;;;;4.57;3.87;;;12.70;99.90;;;;;;5014774;28;20196;-64
2022/12/25 08:52:08;;;;;;;4.97;3.60;;;12.70;99.90;;;;;;5017663;28;20204;-65
2022/12/25 08:54:35;;;;;;;5.17;4.30;;;12.70;99.90;;;;;;5009141;28;20745;-65
2022/12/25 08:57:02;;;;;;;6.00;4.20;;;12.70;99.90;;;;;;5017818;28;20240;-65
2022/12/25 08:59:27;;;;;;;5.53;4.50;;;12.70;99.90;;;;;;5019107;28;20451;-65
2022/12/25 09:01:53;;;;;;;6.60;4.37;;;12.70;99.90;;;;;;5021375;28;20427;-64
2022/12/25 09:04:18;;;;;;;5.27;4.37;;;12.70;99.90;;;;;;5013567;28;20288;-64
2022/12/25 09:06:44;;;;;;;5.83;4.00;;;12.70;99.90;;;;;;5014978;28;20267;-65
2022/12/25 09:09:09;;;;;;;5.90;3.97;;;12.80;99.90;;;;;;5013052;28;20846;-65
2022/12/25 09:11:35;;;;;;;6.50;3.90;;;12.70;99.90;;;;;;5014294;28;21008;-65
2022/12/25 09:14:01;;;;;;;5.57;3.80;;;12.70;99.90;;;;;;5010792;28;20670;-65
2022/12/25 09:16:26;;;;;;;7.10;4.77;;;12.70;99.90;;;;;;5014054;28;20888;-64
2022/12/25 09:18:55;;;;;;;5.73;4.07;;;12.70;99.90;;;;;;5007705;28;20193;-65
2022/12/25 09:21:20;;;;;;;6.43;4.07;;;12.70;99.90;;;;;;5005895;28;20180;-65
2022/12/25 09:23:46;;;;;;;5.93;3.80;;;12.70;99.90;;;;;;5013246;28;20451;-64
2022/12/25 09:26:14;;;;;;;6.20;4.10;;;12.70;99.90;;;;;;5013817;28;20291;-64
2022/12/25 09:28:40;;;;;;;7.73;3.97;;;12.80;99.90;;;;;;5012563;28;20207;-64
2022/12/25 09:31:06;;;;;;;8.03;4.13;;;12.80;99.90;;;;;;5013425;28;21008;-64
2022/12/25 09:33:31;;;;;;;6.23;5.00;;;12.80;99.90;;;;;;5011287;28;20467;-65
2022/12/25 09:36:00;;;;;;;4.80;3.90;;;12.70;99.90;;;;;;5010645;28;20216;-65
2022/12/25 09:38:26;;;;;;;6.90;4.60;;;12.60;99.90;;;;;;5012689;28;20813;-65
2022/12/25 09:41:09;;;;;;;7.67;4.17;;;12.70;99.90;;;;;;5014066;28;20440;-65
2022/12/25 09:43:44;;;;;;;5.30;4.13;;;12.70;99.90;;;;;;5014119;28;20466;-65
2022/12/25 09:46:15;;;;;;;5.23;4.73;;;12.70;99.90;;;;;;5017634;28;20820;-64
2022/12/25 09:48:47;;;;;;;9.57;4.93;;;12.70;99.90;;;;;;5026725;28;20442;-65
2022/12/25 09:51:16;;;;;;;5.80;4.87;;;12.70;99.90;;;;;;5020191;28;20482;-64
2022/12/25 09:53:57;;;;;;;6.70;4.80;;;12.70;99.90;;;;;;5015260;28;20521;-64
2022/12/25 09:56:24;;;;;;;7.13;5.30;;;12.70;99.90;;;;;;5017625;28;20463;-64
2022/12/25 09:58:51;;;;;;;5.50;4.70;;;12.70;99.90;;;;;;5018461;28;20952;-65
2022/12/25 10:01:28;;;;;;;7.40;4.20;;;12.80;99.90;;;;;;5023398;28;20442;-64
2022/12/25 10:04:21;;;;;;;6.67;4.87;;;12.80;99.90;;;;;;5018774;28;20449;-63
2022/12/25 10:07:16;;;;;;;4.80;4.13;;;12.90;99.90;;;;;;5015864;28;20462;-64
2022/12/25 10:10:08;;;;;;;4.53;4.13;;;12.80;99.90;;;;;;5013388;28;20798;-65
2022/12/25 10:12:33;;;;;;;4.70;3.60;;;12.80;99.90;;;;;;5012579;28;20443;-65
2022/12/25 10:15:30;;;;;;;5.33;3.70;;;12.90;99.90;;;;;;5020901;28;20872;-65
2022/12/25 10:18:17;;;;;;;3.20;2.90;;;12.90;99.90;;;;;;5014094;28;20199;-66
2022/12/25 10:20:51;;;;;;;11.03;8.10;;;12.90;99.90;;;;;;5016951;28;20477;-65
2022/12/25 10:23:40;;;;;;;5.13;4.23;;;12.90;99.90;;;;;;5006283;28;20940;-65
2022/12/25 10:26:17;;;;;;;5.53;3.60;;;13.00;99.90;;;;;;5004931;28;20459;-66
2022/12/25 10:28:45;;;;;;;5.77;3.77;;;13.10;99.90;;;;;;5014267;28;20807;-66
2022/12/25 10:31:22;;;;;;;4.90;3.90;;;13.20;99.90;;;;;;5018054;28;20438;-65
2022/12/25 10:33:50;;;;;;;8.03;3.83;;;13.30;99.90;;;;;;5013105;28;20462;-66
2022/12/25 10:36:19;;;;;;;8.57;4.00;;;13.30;99.90;;;;;;5015436;28;20455;-66
2022/12/25 10:38:46;;;;;;;5.90;3.50;;;13.30;99.90;;;;;;5013587;28;20439;-68
2022/12/25 10:41:31;;;;;;;5.43;3.70;;;13.40;99.90;;;;;;5020974;28;20481;-68
2022/12/25 10:43:56;;;;;;;5.40;3.50;;;13.40;99.90;;;;;;5019986;28;20439;-67
2022/12/25 10:46:26;;;;;;;5.90;3.40;;;13.50;99.90;;;;;;5016993;28;21015;-68
2022/12/25 10:49:00;;;;;;;4.47;3.00;;;13.40;99.90;;;;;;5018577;28;20192;-67
2022/12/25 10:51:37;;;;;;;4.77;4.10;;;13.40;99.90;;;;;;5013921;28;20540;-67
2022/12/25 10:54:29;;;;;;;8.20;4.30;;;13.40;99.90;;;;;;5010837;28;20478;-68
2022/12/25 10:56:59;;;;;;;5.87;4.00;;;13.50;99.90;;;;;;5012498;28;20462;-68
2022/12/25 10:59:27;;;;;;;8.57;3.50;;;13.60;99.90;;;;;;5017119;28;20824;-67
2022/12/25 11:01:54;;;;;;;5.07;3.07;;;13.60;99.90;;;;;;5018959;28;20442;-68
2022/12/25 11:04:27;;;;;;;4.80;2.90;;;13.60;99.90;;;;;;5019324;28;20452;-68
2022/12/25 11:07:19;;;;;;;5.33;3.20;;;13.60;99.90;;;;;;5015848;28;20557;-68
2022/12/25 11:09:59;;;;;;;6.77;3.93;;;13.60;99.90;;;;;;5016726;28;20442;-68
2022/12/25 11:12:46;;;;;;;3.77;2.67;;;13.70;99.90;;;;;;5013161;28;20964;-68
2022/12/25 11:15:38;;;;;;;3.67;2.53;;;13.80;99.90;;;;;;5014809;28;20477;-67
2022/12/25 11:18:25;;;;;;;7.10;3.20;;;13.80;99.90;;;;;;5018232;28;20704;-67
2022/12/25 11:20:59;;;;;;;6.23;3.20;;;13.90;99.90;;;;;;5014848;28;20448;-66
2022/12/25 11:23:27;;;;;;;3.77;3.00;;;13.90;99.90;;;;;;5017550;28;20493;-67
2022/12/25 11:25:58;;;;;;;5.50;3.70;;;14.00;99.90;;;;;;5015996;28;20559;-67
2022/12/25 11:28:26;;;;;;;6.07;4.07;;;14.00;99.90;;;;;;5009779;28;20769;-67
2022/12/25 11:31:04;;;;;;;4.50;2.77;;;14.10;99.90;;;;;;5014188;28;20427;-67
2022/12/25 11:33:35;;;;;;;3.97;2.80;;;14.20;99.90;;;;;;5013919;28;21071;-67
2022/12/25 11:36:07;;;;;;;3.90;2.60;;;14.20;99.90;;;;;;5011140;28;20469;-67
2022/12/25 11:38:33;;;;;;;3.90;2.67;;;14.20;99.90;;;;;;5009452;28;20436;-67
2022/12/25 11:41:03;;;;;;;3.60;2.40;;;14.20;99.90;;;;;;5015317;28;20811;-67
2022/12/25 11:43:36;;;;;;;6.43;2.90;;;14.30;99.90;;;;;;5015692;28;20211;-67
2022/12/25 11:46:20;;;;;;;3.83;3.43;;;14.30;99.90;;;;;;5015621;28;20468;-67
2022/12/25 11:49:07;;;;;;;3.50;3.00;;;14.40;99.90;;;;;;5012956;28;20435;-67
2022/12/25 11:51:37;;;;;;;5.73;3.50;;;14.40;99.90;;;;;;5014929;28;20457;-69
2022/12/25 11:54:32;;;;;;;8.03;4.10;;;14.50;99.90;;;;;;5008181;28;20469;-66
2022/12/25 11:57:01;;;;;;;8.50;4.20;;;14.50;99.90;;;;;;5004394;28;20693;-66
2022/12/25 11:59:37;;;;;;;7.80;3.80;;;14.50;99.90;;;;;;5010341;28;20534;-66
2022/12/25 12:02:17;;;;;;;4.93;3.27;;;14.90;99.90;;;;;;5008575;28;20438;-68
2022/12/25 12:04:47;;;;;;;4.80;3.53;;;15.40;99.90;;;;;;5007289;28;21068;-68
2022/12/25 12:07:25;;;;;;;4.70;3.57;;;15.80;99.90;;;;;;5007331;28;21121;-68
2022/12/25 12:10:20;;;;;;;4.97;3.20;;;15.70;99.90;;;;;;5009181;28;20443;-68
2022/12/25 12:13:18;;;;;;;4.10;2.80;;;16.00;99.90;;;;;;4998201;28;20889;-67
2022/12/25 12:15:48;;;;;;;6.77;2.90;;;16.10;99.90;;;;;;5010191;28;21009;-68
2022/12/25 12:18:31;;;;;;;3.87;2.60;;;16.00;99.90;;;;;;5010537;28;20557;-67
2022/12/25 12:21:16;;;;;;;4.90;2.73;;;16.00;99.90;;;;;;5013063;28;20504;-67
2022/12/25 12:23:54;;;;;;;6.17;2.87;;;16.40;99.90;;;;;;5009966;28;20450;-67
2022/12/25 12:26:22;;;;;;;7.80;3.60;;;16.80;99.90;;;;;;5010784;28;20942;-67
2022/12/25 12:28:49;;;;;;;4.90;2.70;;;17.30;99.90;;;;;;5006995;28;20528;-66
2022/12/25 12:31:15;;;;;;;3.47;2.40;;;17.60;99.90;;;;;;5009078;28;20443;-68
2022/12/25 12:33:49;;;;;;;4.30;2.80;;;17.90;99.90;;;;;;5008437;28;20471;-66
2022/12/25 12:36:15;;;;;;;3.70;2.73;;;18.10;99.90;;;;;;5008763;28;20977;-65
2022/12/25 12:38:42;;;;;;;3.63;2.47;;;18.30;99.90;;;;;;5006937;28;21810;-66
2022/12/25 12:41:11;;;;;;;5.07;2.80;;;18.50;99.90;;;;;;5007762;28;20454;-67
2022/12/25 12:43:41;;;;;;;3.20;2.17;;;18.50;99.90;;;;;;5013835;28;20435;-66
2022/12/25 12:46:14;;;;;;;4.50;2.40;;;18.60;99.90;;;;;;5006829;28;20466;-65
2022/12/25 12:48:43;;;;;;;5.27;2.73;;;18.60;99.90;;;;;;5010905;28;20488;-67
2022/12/25 12:51:12;;;;;;;3.03;2.47;;;18.70;99.90;;;;;;5011520;28;20481;-67
2022/12/25 12:53:42;;;;;;;4.47;2.70;;;18.80;99.90;;;;;;5011556;28;20506;-67
2022/12/25 12:56:14;;;;;;;6.40;3.10;;;18.80;99.90;;;;;;5012224;28;20463;-67
2022/12/25 12:58:49;;;;;;;4.97;2.90;;;18.80;99.90;;;;;;5005901;28;20452;-67
2022/12/25 13:01:38;;;;;;;3.93;2.77;;;18.80;99.90;;;;;;5009905;28;20873;-68
2022/12/25 13:04:33;;;;;;;5.30;3.27;;;18.80;99.90;;;;;;5008883;28;20542;-67
2022/12/25 13:07:20;;;;;;;3.93;2.63;;;18.90;99.90;;;;;;5010064;28;20511;-67
2022/12/25 13:10:08;;;;;;;9.90;3.63;;;18.90;99.90;;;;;;5005755;28;20485;-67
2022/12/25 13:12:33;;;;;;;4.33;3.30;;;18.80;99.90;;;;;;5012282;28;20474;-69
2022/12/25 13:14:59;;;;;;;4.53;3.00;;;18.80;99.90;;;;;;5010031;28;21200;-67
2022/12/25 13:17:26;;;;;;;6.63;4.60;;;18.70;99.90;;;;;;5015330;28;20575;-67
2022/12/25 13:19:57;;;;;;;4.80;3.60;;;18.50;99.90;;;;;;5008888;28;20636;-67
2022/12/25 13:22:32;;;;;;;5.20;4.00;;;18.40;99.90;;;;;;5012795;28;20496;-67
2022/12/25 13:25:04;;;;;;;8.50;4.47;;;18.10;99.90;;;;;;5007246;28;20521;-67
2022/12/25 13:27:32;;;;;;;5.60;3.40;;;17.90;99.90;;;;;;5014860;28;20467;-67
2022/12/25 13:29:58;;;;;;;4.90;4.17;;;17.70;99.90;;;;;;5007394;28;21100;-67
2022/12/25 13:32:25;;;;;;;4.30;3.40;;;17.60;99.90;;;;;;5017483;28;20482;-67
2022/12/25 13:34:52;;;;;;;5.40;3.47;;;17.40;99.90;;;;;;5013481;28;20467;-67
2022/12/25 13:37:21;;;;;;;5.60;3.50;;;17.20;99.90;;;;;;5012479;28;20447;-67
2022/12/25 13:39:53;;;;;;;3.93;3.17;;;17.20;99.90;;;;;;5015263;28;20983;-67
2022/12/25 13:42:24;;;;;;;4.27;3.40;;;16.90;99.90;;;;;;5012457;28;20859;-67
2022/12/25 13:44:58;;;;;;;5.93;3.20;;;16.80;99.90;;;;;;5014995;28;20486;-67
2022/12/25 13:47:30;;;;;;;4.30;3.03;;;16.70;99.90;;;;;;5012805;28;20809;-67
2022/12/25 13:49:57;;;;;;;3.57;2.90;;;16.70;99.90;;;;;;5017242;28;20799;-67
2022/12/25 13:52:34;;;;;;;4.23;3.20;;;16.60;99.90;;;;;;5014752;28;20447;-68
2022/12/25 13:55:02;;;;;;;7.00;3.20;;;16.70;99.90;;;;;;5013836;28;21056;-67
2022/12/25 13:57:38;;;;;;;5.73;3.60;;;16.50;99.90;;;;;;5018492;28;21087;-67
2022/12/25 14:00:06;;;;;;;3.90;3.10;;;16.50;99.90;;;;;;5017134;28;20423;-68
2022/12/25 14:02:35;;;;;;;4.30;3.30;;;16.60;99.90;;;;;;5015649;28;20719;-68
2022/12/25 14:05:02;;;;;;;9.50;3.80;;;16.60;99.90;;;;;;5016633;28;20430;-67
2022/12/25 14:07:28;;;;;;;4.50;2.60;;;16.50;99.90;;;;;;5015960;28;20491;-68
2022/12/25 14:10:00;;;;;;;8.67;5.40;;;16.50;99.90;;;;;;5013225;28;20947;-67
2022/12/25 14:12:29;;;;;;;3.63;3.20;;;16.50;99.90;;;;;;5017879;28;20226;-67
2022/12/25 14:14:57;;;;;;;5.37;3.20;;;16.50;99.90;;;;;;5016138;28;20548;-68
2022/12/25 14:17:24;;;;;;;13.20;9.30;;;16.50;99.90;;;;;;5013251;28;20525;-68
2022/12/25 14:19:58;;;;;;;3.67;3.23;;;16.50;99.90;;;;;;5017428;28;20530;-67
2022/12/25 14:22:24;;;;;;;9.90;3.30;;;16.60;99.90;;;;;;5016357;28;20646;-67
2022/12/25 14:24:50;;;;;;;4.60;3.33;;;16.50;99.90;;;;;;5011841;28;20987;-67
2022/12/25 14:27:25;;;;;;;6.17;2.73;;;16.50;99.90;;;;;;5014403;28;20449;-67
2022/12/25 14:29:54;;;;;;;7.37;3.73;;;16.40;99.90;;;;;;5013271;28;20191;-67
2022/12/25 14:32:22;;;;;;;4.53;3.03;;;16.40;99.90;;;;;;5019913;28;20431;-67
2022/12/25 14:34:52;;;;;;;4.40;3.00;;;16.40;99.90;;;;;;5019253;28;20472;-67
2022/12/25 14:37:24;;;;;;;6.03;3.00;;;16.40;99.90;;;;;;5016931;28;20454;-68
2022/12/25 14:39:55;;;;;;;5.53;3.50;;;16.40;99.90;;;;;;5016415;28;20435;-67
2022/12/25 14:42:27;;;;;;;4.80;3.40;;;16.40;99.90;;;;;;5021778;28;20431;-67
2022/12/25 14:45:05;;;;;;;5.90;3.50;;;16.40;99.90;;;;;;5023819;28;20938;-67